sensor_id;sensor_type;location;lat;lon;timestamp;noise_LAeq;noise_LA_min;noise_LA_max;noise_LA01;noise_LA95
56099;Laerm;44276;49.534;6.378;2023-08-12T00:00:32;42.78;40.89;44.90;;
56099;Laerm;44276;49.534;6.378;2023-08-12T00:03:01;42.82;41.46;45.36;;
56099;Laerm;44276;49.534;6.378;2023-08-12T00:05:29;42.85;41.46;44.76;;
56099;Laerm;44276;49.534;6.378;2023-08-12T00:07:57;42.79;41.22;46.59;;
56099;Laerm;44276;49.534;6.378;2023-08-12T00:10:26;42.77;41.26;44.15;;
56099;Laerm;44276;49.534;6.378;2023-08-12T00:12:54;42.95;41.30;50.26;;
56099;Laerm;44276;49.534;6.378;2023-08-12T00:15:23;42.93;41.53;44.87;;
56099;Laerm;44276;49.534;6.378;2023-08-12T00:17:52;42.91;41.53;48.74;;
56099;Laerm;44276;49.534;6.378;2023-08-12T00:20:21;42.83;41.46;45.04;;
56099;Laerm;44276;49.534;6.378;2023-08-12T00:22:49;43.03;41.30;51.15;;
56099;Laerm;44276;49.534;6.378;2023-08-12T00:25:17;42.85;41.61;44.31;;
56099;Laerm;44276;49.534;6.378;2023-08-12T00:27:45;42.81;41.46;45.54;;
56099;Laerm;44276;49.534;6.378;2023-08-12T00:30:14;43.31;41.30;50.77;;
56099;Laerm;44276;49.534;6.378;2023-08-12T00:32:44;42.79;41.22;44.87;;
56099;Laerm;44276;49.534;6.378;2023-08-12T00:35:12;43.78;41.53;50.91;;
56099;Laerm;44276;49.534;6.378;2023-08-12T00:37:40;42.89;41.46;46.97;;
56099;Laerm;44276;49.534;6.378;2023-08-12T00:40:10;42.80;41.53;45.99;;
56099;Laerm;44276;49.534;6.378;2023-08-12T00:42:38;42.88;41.38;45.51;;
56099;Laerm;44276;49.534;6.378;2023-08-12T00:45:10;42.79;41.46;43.99;;
56099;Laerm;44276;49.534;6.378;2023-08-12T00:47:41;42.82;41.46;44.87;;
56099;Laerm;44276;49.534;6.378;2023-08-12T00:50:14;42.95;41.61;46.71;;
56099;Laerm;44276;49.534;6.378;2023-08-12T00:52:43;42.85;41.61;45.54;;
56099;Laerm;44276;49.534;6.378;2023-08-12T00:55:12;42.89;41.46;45.14;;
56099;Laerm;44276;49.534;6.378;2023-08-12T00:57:40;42.95;41.14;46.93;;
56099;Laerm;44276;49.534;6.378;2023-08-12T01:00:10;42.86;41.53;45.91;;
56099;Laerm;44276;49.534;6.378;2023-08-12T01:02:38;43.27;41.53;48.48;;
56099;Laerm;44276;49.534;6.378;2023-08-12T01:05:08;42.89;41.30;44.97;;
56099;Laerm;44276;49.534;6.378;2023-08-12T01:07:37;42.82;41.46;44.15;;
56099;Laerm;44276;49.534;6.378;2023-08-12T01:10:07;42.86;41.22;44.42;;
56099;Laerm;44276;49.534;6.378;2023-08-12T01:12:49;42.83;41.53;43.94;;
56099;Laerm;44276;49.534;6.378;2023-08-12T01:15:21;42.82;41.22;44.07;;
56099;Laerm;44276;49.534;6.378;2023-08-12T01:17:53;42.80;41.46;44.35;;
56099;Laerm;44276;49.534;6.378;2023-08-12T01:20:23;42.82;41.14;44.19;;
56099;Laerm;44276;49.534;6.378;2023-08-12T01:23:06;42.81;41.30;44.07;;
56099;Laerm;44276;49.534;6.378;2023-08-12T01:25:35;42.91;41.30;46.69;;
56099;Laerm;44276;49.534;6.378;2023-08-12T01:28:04;42.84;41.53;44.27;;
56099;Laerm;44276;49.534;6.378;2023-08-12T01:30:36;42.81;41.61;43.99;;
56099;Laerm;44276;49.534;6.378;2023-08-12T01:33:17;42.82;40.80;44.03;;
56099;Laerm;44276;49.534;6.378;2023-08-12T01:35:53;42.79;41.48;43.90;;
56099;Laerm;44276;49.534;6.378;2023-08-12T01:38:26;42.85;41.61;44.51;;
56099;Laerm;44276;49.534;6.378;2023-08-12T01:40:57;42.80;41.38;43.99;;
56099;Laerm;44276;49.534;6.378;2023-08-12T01:43:27;43.10;41.14;49.98;;
56099;Laerm;44276;49.534;6.378;2023-08-12T01:45:56;42.82;41.38;44.01;;
56099;Laerm;44276;49.534;6.378;2023-08-12T01:48:25;42.84;41.38;44.03;;
56099;Laerm;44276;49.534;6.378;2023-08-12T01:50:53;42.80;41.46;44.38;;
56099;Laerm;44276;49.534;6.378;2023-08-12T01:53:21;42.86;41.38;44.23;;
56099;Laerm;44276;49.534;6.378;2023-08-12T01:55:52;43.04;41.53;47.04;;
56099;Laerm;44276;49.534;6.378;2023-08-12T01:58:20;42.80;41.53;44.03;;
56099;Laerm;44276;49.534;6.378;2023-08-12T02:00:49;42.79;40.98;44.03;;
56099;Laerm;44276;49.534;6.378;2023-08-12T02:03:17;42.81;41.38;45.04;;
56099;Laerm;44276;49.534;6.378;2023-08-12T02:05:45;42.79;41.61;43.99;;
56099;Laerm;44276;49.534;6.378;2023-08-12T02:08:13;42.81;41.38;44.03;;
56099;Laerm;44276;49.534;6.378;2023-08-12T02:10:42;42.81;41.53;43.94;;
56099;Laerm;44276;49.534;6.378;2023-08-12T02:13:11;42.80;41.46;43.90;;
56099;Laerm;44276;49.534;6.378;2023-08-12T02:15:39;42.77;41.26;43.90;;
56099;Laerm;44276;49.534;6.378;2023-08-12T02:18:07;42.79;41.46;43.81;;
56099;Laerm;44276;49.534;6.378;2023-08-12T02:20:35;42.77;41.61;43.94;;
56099;Laerm;44276;49.534;6.378;2023-08-12T02:23:04;42.77;41.38;43.81;;
56099;Laerm;44276;49.534;6.378;2023-08-12T02:25:32;42.79;41.46;44.23;;
56099;Laerm;44276;49.534;6.378;2023-08-12T02:28:00;42.90;41.22;46.71;;
56099;Laerm;44276;49.534;6.378;2023-08-12T02:30:30;42.83;41.53;45.20;;
56099;Laerm;44276;49.534;6.378;2023-08-12T02:32:58;42.79;41.30;44.42;;
56099;Laerm;44276;49.534;6.378;2023-08-12T02:35:27;42.84;41.46;45.60;;
56099;Laerm;44276;49.534;6.378;2023-08-12T02:37:55;42.76;41.38;43.90;;
56099;Laerm;44276;49.534;6.378;2023-08-12T02:40:23;42.76;41.06;44.45;;
56099;Laerm;44276;49.534;6.378;2023-08-12T02:42:51;42.75;41.30;43.93;;
56099;Laerm;44276;49.534;6.378;2023-08-12T02:45:19;42.75;41.46;43.99;;
56099;Laerm;44276;49.534;6.378;2023-08-12T02:47:49;42.77;41.38;43.94;;
56099;Laerm;44276;49.534;6.378;2023-08-12T02:50:17;42.75;41.46;43.94;;
56099;Laerm;44276;49.534;6.378;2023-08-12T02:52:45;42.76;41.06;44.11;;
56099;Laerm;44276;49.534;6.378;2023-08-12T02:55:14;42.74;41.30;43.90;;
56099;Laerm;44276;49.534;6.378;2023-08-12T02:57:42;42.75;41.53;44.11;;
56099;Laerm;44276;49.534;6.378;2023-08-12T03:00:12;42.74;41.30;43.86;;
56099;Laerm;44276;49.534;6.378;2023-08-12T03:02:42;42.74;41.14;43.90;;
56099;Laerm;44276;49.534;6.378;2023-08-12T03:05:12;42.78;41.38;43.99;;
56099;Laerm;44276;49.534;6.378;2023-08-12T03:07:40;42.76;41.30;43.94;;
56099;Laerm;44276;49.534;6.378;2023-08-12T03:10:10;42.80;41.46;44.11;;
56099;Laerm;44276;49.534;6.378;2023-08-12T03:12:38;42.81;41.38;44.51;;
56099;Laerm;44276;49.534;6.378;2023-08-12T03:15:07;42.79;41.53;44.03;;
56099;Laerm;44276;49.534;6.378;2023-08-12T03:17:36;42.78;41.14;44.11;;
56099;Laerm;44276;49.534;6.378;2023-08-12T03:20:07;42.81;41.53;44.07;;
56099;Laerm;44276;49.534;6.378;2023-08-12T03:22:37;42.80;41.22;43.90;;
56099;Laerm;44276;49.534;6.378;2023-08-12T03:25:07;42.79;41.06;43.94;;
56099;Laerm;44276;49.534;6.378;2023-08-12T03:27:35;42.79;41.53;43.99;;
56099;Laerm;44276;49.534;6.378;2023-08-12T03:30:04;42.84;41.46;44.92;;
56099;Laerm;44276;49.534;6.378;2023-08-12T03:32:33;42.77;41.30;44.07;;
56099;Laerm;44276;49.534;6.378;2023-08-12T03:35:01;42.84;41.46;44.58;;
56099;Laerm;44276;49.534;6.378;2023-08-12T03:37:29;42.81;41.53;44.11;;
56099;Laerm;44276;49.534;6.378;2023-08-12T03:39:59;42.79;41.53;43.90;;
56099;Laerm;44276;49.534;6.378;2023-08-12T03:42:27;42.91;41.22;45.91;;
56099;Laerm;44276;49.534;6.378;2023-08-12T03:44:55;42.79;41.53;44.03;;
56099;Laerm;44276;49.534;6.378;2023-08-12T03:47:23;42.80;41.38;44.19;;
56099;Laerm;44276;49.534;6.378;2023-08-12T03:49:52;42.80;41.30;43.90;;
56099;Laerm;44276;49.534;6.378;2023-08-12T03:52:20;42.85;41.06;44.11;;
56099;Laerm;44276;49.534;6.378;2023-08-12T03:54:48;42.79;41.61;44.07;;
56099;Laerm;44276;49.534;6.378;2023-08-12T03:57:18;42.78;41.46;44.07;;
56099;Laerm;44276;49.534;6.378;2023-08-12T03:59:46;42.81;41.38;43.94;;
56099;Laerm;44276;49.534;6.378;2023-08-12T04:02:14;42.80;41.53;43.99;;
56099;Laerm;44276;49.534;6.378;2023-08-12T04:04:42;42.79;41.53;43.99;;
56099;Laerm;44276;49.534;6.378;2023-08-12T04:07:10;42.79;41.46;44.07;;
56099;Laerm;44276;49.534;6.378;2023-08-12T04:09:39;42.83;41.61;43.90;;
56099;Laerm;44276;49.534;6.378;2023-08-12T04:12:07;42.86;41.53;44.80;;
56099;Laerm;44276;49.534;6.378;2023-08-12T04:14:37;42.83;41.53;44.27;;
56099;Laerm;44276;49.534;6.378;2023-08-12T04:17:07;42.83;41.46;43.94;;
56099;Laerm;44276;49.534;6.378;2023-08-12T04:19:36;42.83;41.53;44.23;;
56099;Laerm;44276;49.534;6.378;2023-08-12T04:22:04;42.89;41.30;44.97;;
56099;Laerm;44276;49.534;6.378;2023-08-12T04:24:32;42.84;41.61;44.19;;
56099;Laerm;44276;49.534;6.378;2023-08-12T04:27:00;42.83;41.61;44.11;;
56099;Laerm;44276;49.534;6.378;2023-08-12T04:29:28;42.89;41.14;44.47;;
56099;Laerm;44276;49.534;6.378;2023-08-12T04:31:58;42.86;41.61;44.15;;
56099;Laerm;44276;49.534;6.378;2023-08-12T04:34:26;42.86;41.53;44.23;;
56099;Laerm;44276;49.534;6.378;2023-08-12T04:36:54;42.82;41.22;44.07;;
56099;Laerm;44276;49.534;6.378;2023-08-12T04:39:23;42.82;41.38;43.99;;
56099;Laerm;44276;49.534;6.378;2023-08-12T04:41:51;42.86;41.38;44.03;;
56099;Laerm;44276;49.534;6.378;2023-08-12T04:44:20;42.90;41.30;44.23;;
56099;Laerm;44276;49.534;6.378;2023-08-12T04:46:48;42.87;41.22;44.62;;
56099;Laerm;44276;49.534;6.378;2023-08-12T04:49:18;42.99;41.53;45.69;;
56099;Laerm;44276;49.534;6.378;2023-08-12T04:51:47;42.82;41.46;43.94;;
56099;Laerm;44276;49.534;6.378;2023-08-12T04:54:15;42.85;41.53;44.23;;
56099;Laerm;44276;49.534;6.378;2023-08-12T04:56:43;42.82;41.30;43.99;;
56099;Laerm;44276;49.534;6.378;2023-08-12T04:59:11;42.85;41.46;43.99;;
56099;Laerm;44276;49.534;6.378;2023-08-12T05:01:39;42.82;41.30;43.90;;
56099;Laerm;44276;49.534;6.378;2023-08-12T05:04:29;42.90;41.38;45.11;;
56099;Laerm;44276;49.534;6.378;2023-08-12T05:06:58;42.84;41.46;43.94;;
56099;Laerm;44276;49.534;6.378;2023-08-12T05:09:26;42.82;41.68;43.99;;
56099;Laerm;44276;49.534;6.378;2023-08-12T05:11:54;42.94;41.53;46.62;;
56099;Laerm;44276;49.534;6.378;2023-08-12T05:14:22;42.88;41.53;44.23;;
56099;Laerm;44276;49.534;6.378;2023-08-12T05:16:50;42.84;41.30;44.27;;
56099;Laerm;44276;49.534;6.378;2023-08-12T05:19:18;42.89;41.22;44.35;;
56099;Laerm;44276;49.534;6.378;2023-08-12T05:21:48;42.87;41.38;44.11;;
56099;Laerm;44276;49.534;6.378;2023-08-12T05:24:16;42.87;41.53;44.15;;
56099;Laerm;44276;49.534;6.378;2023-08-12T05:26:44;42.85;41.55;44.07;;
56099;Laerm;44276;49.534;6.378;2023-08-12T05:29:12;42.89;41.53;44.03;;
56099;Laerm;44276;49.534;6.378;2023-08-12T05:31:41;42.87;41.61;44.03;;
56099;Laerm;44276;49.534;6.378;2023-08-12T05:34:09;42.87;41.53;43.94;;
56099;Laerm;44276;49.534;6.378;2023-08-12T05:36:37;42.87;41.30;43.99;;
56099;Laerm;44276;49.534;6.378;2023-08-12T05:39:07;42.86;41.53;43.99;;
56099;Laerm;44276;49.534;6.378;2023-08-12T05:41:35;42.90;41.22;44.07;;
56099;Laerm;44276;49.534;6.378;2023-08-12T05:44:04;42.91;41.38;45.20;;
56099;Laerm;44276;49.534;6.378;2023-08-12T05:46:32;42.98;41.46;44.58;;
56099;Laerm;44276;49.534;6.378;2023-08-12T05:49:00;42.94;41.75;44.19;;
56099;Laerm;44276;49.534;6.378;2023-08-12T05:51:29;42.90;41.46;43.99;;
56099;Laerm;44276;49.534;6.378;2023-08-12T05:53:57;42.96;41.38;44.23;;
56099;Laerm;44276;49.534;6.378;2023-08-12T05:56:26;42.94;41.53;44.15;;
56099;Laerm;44276;49.534;6.378;2023-08-12T05:58:54;42.96;41.61;44.07;;
56099;Laerm;44276;49.534;6.378;2023-08-12T06:01:23;42.99;41.61;44.34;;
56099;Laerm;44276;49.534;6.378;2023-08-12T06:03:51;42.97;41.61;44.31;;
56099;Laerm;44276;49.534;6.378;2023-08-12T06:06:19;42.97;41.53;44.19;;
56099;Laerm;44276;49.534;6.378;2023-08-12T06:08:48;42.97;41.75;44.07;;
56099;Laerm;44276;49.534;6.378;2023-08-12T06:11:16;43.00;41.53;44.65;;
56099;Laerm;44276;49.534;6.378;2023-08-12T06:13:46;42.98;41.61;44.27;;
56099;Laerm;44276;49.534;6.378;2023-08-12T06:16:14;42.94;41.68;44.23;;
56099;Laerm;44276;49.534;6.378;2023-08-12T06:18:42;42.96;41.68;44.03;;
56099;Laerm;44276;49.534;6.378;2023-08-12T06:21:10;42.99;41.75;44.15;;
56099;Laerm;44276;49.534;6.378;2023-08-12T06:23:38;43.03;41.22;44.27;;
56099;Laerm;44276;49.534;6.378;2023-08-12T06:26:07;43.00;41.68;44.23;;
56099;Laerm;44276;49.534;6.378;2023-08-12T06:28:35;42.97;41.68;44.39;;
56099;Laerm;44276;49.534;6.378;2023-08-12T06:31:04;42.95;41.68;44.11;;
56099;Laerm;44276;49.534;6.378;2023-08-12T06:33:32;42.96;41.68;44.19;;
56099;Laerm;44276;49.534;6.378;2023-08-12T06:36:01;42.97;41.38;44.07;;
56099;Laerm;44276;49.534;6.378;2023-08-12T06:38:29;42.98;41.68;44.19;;
56099;Laerm;44276;49.534;6.378;2023-08-12T06:40:57;43.01;41.68;44.15;;
56099;Laerm;44276;49.534;6.378;2023-08-12T06:43:25;43.02;41.53;44.11;;
56099;Laerm;44276;49.534;6.378;2023-08-12T06:45:56;42.99;41.75;44.03;;
56099;Laerm;44276;49.534;6.378;2023-08-12T06:48:25;43.04;41.68;44.19;;
56099;Laerm;44276;49.534;6.378;2023-08-12T06:50:54;43.07;41.53;44.51;;
56099;Laerm;44276;49.534;6.378;2023-08-12T06:53:26;43.03;41.53;44.03;;
56099;Laerm;44276;49.534;6.378;2023-08-12T06:55:54;43.04;41.82;44.07;;
56099;Laerm;44276;49.534;6.378;2023-08-12T06:58:23;43.04;41.82;44.07;;
56099;Laerm;44276;49.534;6.378;2023-08-12T07:00:52;43.82;41.89;60.95;;
56099;Laerm;44276;49.534;6.378;2023-08-12T07:03:21;43.03;41.38;44.07;;
56099;Laerm;44276;49.534;6.378;2023-08-12T07:05:52;43.06;41.82;44.23;;
56099;Laerm;44276;49.534;6.378;2023-08-12T07:08:20;43.07;41.75;44.23;;
56099;Laerm;44276;49.534;6.378;2023-08-12T07:10:48;43.06;41.75;44.19;;
56099;Laerm;44276;49.534;6.378;2023-08-12T07:13:17;43.07;41.68;44.19;;
56099;Laerm;44276;49.534;6.378;2023-08-12T07:15:45;43.04;41.68;44.11;;
56099;Laerm;44276;49.534;6.378;2023-08-12T07:18:13;43.07;41.38;44.19;;
56099;Laerm;44276;49.534;6.378;2023-08-12T07:20:42;43.07;41.38;44.27;;
56099;Laerm;44276;49.534;6.378;2023-08-12T07:23:14;43.05;41.75;44.35;;
56099;Laerm;44276;49.534;6.378;2023-08-12T07:25:42;43.07;41.82;44.73;;
56099;Laerm;44276;49.534;6.378;2023-08-12T07:28:11;43.13;41.96;44.65;;
56099;Laerm;44276;49.534;6.378;2023-08-12T07:30:39;43.09;41.75;44.15;;
56099;Laerm;44276;49.534;6.378;2023-08-12T07:33:07;43.11;41.89;44.31;;
56099;Laerm;44276;49.534;6.378;2023-08-12T07:35:36;43.07;41.75;44.15;;
56099;Laerm;44276;49.534;6.378;2023-08-12T07:38:04;43.07;41.82;44.42;;
56099;Laerm;44276;49.534;6.378;2023-08-12T07:40:34;43.07;41.75;44.11;;
56099;Laerm;44276;49.534;6.378;2023-08-12T07:43:03;43.07;41.89;44.19;;
56099;Laerm;44276;49.534;6.378;2023-08-12T07:45:32;43.08;41.55;44.11;;
56099;Laerm;44276;49.534;6.378;2023-08-12T07:48:00;43.11;41.68;44.27;;
56099;Laerm;44276;49.534;6.378;2023-08-12T07:50:29;43.08;41.82;44.23;;
56099;Laerm;44276;49.534;6.378;2023-08-12T07:52:57;43.11;41.68;44.15;;
56099;Laerm;44276;49.534;6.378;2023-08-12T07:55:27;43.11;41.68;44.15;;
56099;Laerm;44276;49.534;6.378;2023-08-12T07:57:57;43.20;41.61;44.76;;
56099;Laerm;44276;49.534;6.378;2023-08-12T08:00:26;43.13;41.75;45.63;;
56099;Laerm;44276;49.534;6.378;2023-08-12T08:02:54;43.11;41.81;44.19;;
56099;Laerm;44276;49.534;6.378;2023-08-12T08:05:24;43.16;41.89;44.66;;
56099;Laerm;44276;49.534;6.378;2023-08-12T08:07:52;43.16;41.75;44.80;;
56099;Laerm;44276;49.534;6.378;2023-08-12T08:10:21;43.05;41.68;44.62;;
56099;Laerm;44276;49.534;6.378;2023-08-12T08:12:49;43.06;41.61;44.23;;
56099;Laerm;44276;49.534;6.378;2023-08-12T08:15:18;43.13;41.82;44.52;;
56099;Laerm;44276;49.534;6.378;2023-08-12T08:17:46;43.04;41.68;44.11;;
56099;Laerm;44276;49.534;6.378;2023-08-12T08:20:15;43.11;41.75;44.31;;
56099;Laerm;44276;49.534;6.378;2023-08-12T08:22:43;43.09;41.68;44.15;;
56099;Laerm;44276;49.534;6.378;2023-08-12T08:25:11;43.13;41.75;45.11;;
56099;Laerm;44276;49.534;6.378;2023-08-12T08:27:39;43.15;41.82;44.19;;
56099;Laerm;44276;49.534;6.378;2023-08-12T08:30:11;43.17;41.75;44.31;;
56099;Laerm;44276;49.534;6.378;2023-08-12T08:32:41;43.19;41.96;44.47;;
56099;Laerm;44276;49.534;6.378;2023-08-12T08:35:09;43.23;41.89;44.92;;
56099;Laerm;44276;49.534;6.378;2023-08-12T08:37:37;43.27;41.75;44.27;;
56099;Laerm;44276;49.534;6.378;2023-08-12T08:40:08;43.32;42.00;46.35;;
56099;Laerm;44276;49.534;6.378;2023-08-12T08:42:37;43.37;42.22;44.31;;
56099;Laerm;44276;49.534;6.378;2023-08-12T08:45:12;43.43;42.29;49.83;;
56099;Laerm;44276;49.534;6.378;2023-08-12T08:47:42;43.49;42.29;44.62;;
56099;Laerm;44276;49.534;6.378;2023-08-12T08:50:14;43.48;41.82;44.65;;
56099;Laerm;44276;49.534;6.378;2023-08-12T08:52:43;43.48;41.96;46.02;;
56099;Laerm;44276;49.534;6.378;2023-08-12T08:55:11;43.43;41.89;44.54;;
56099;Laerm;44276;49.534;6.378;2023-08-12T08:57:44;43.43;42.09;44.94;;
56099;Laerm;44276;49.534;6.378;2023-08-12T09:00:15;43.43;42.03;44.76;;
56099;Laerm;44276;49.534;6.378;2023-08-12T09:02:47;43.36;42.03;44.54;;
56099;Laerm;44276;49.534;6.378;2023-08-12T09:05:16;43.43;42.09;45.63;;
56099;Laerm;44276;49.534;6.378;2023-08-12T09:07:48;43.36;42.16;44.43;;
56099;Laerm;44276;49.534;6.378;2023-08-12T09:10:21;43.36;42.09;44.76;;
56099;Laerm;44276;49.534;6.378;2023-08-12T09:12:56;43.35;42.03;45.27;;
56099;Laerm;44276;49.534;6.378;2023-08-12T09:15:26;43.40;42.16;44.62;;
56099;Laerm;44276;49.534;6.378;2023-08-12T09:17:57;43.31;42.03;44.47;;
56099;Laerm;44276;49.534;6.378;2023-08-12T09:20:25;43.34;41.82;44.79;;
56099;Laerm;44276;49.534;6.378;2023-08-12T09:22:58;43.36;42.09;45.30;;
56099;Laerm;44276;49.534;6.378;2023-08-12T09:25:27;43.39;42.09;45.33;;
56099;Laerm;44276;49.534;6.378;2023-08-12T09:27:59;43.26;41.89;44.54;;
56099;Laerm;44276;49.534;6.378;2023-08-12T09:30:29;43.46;42.22;46.18;;
56099;Laerm;44276;49.534;6.378;2023-08-12T09:33:03;43.33;41.96;44.87;;
56099;Laerm;44276;49.534;6.378;2023-08-12T09:35:36;43.31;42.03;46.80;;
56099;Laerm;44276;49.534;6.378;2023-08-12T09:38:07;43.24;41.89;45.07;;
56099;Laerm;44276;49.534;6.378;2023-08-12T09:40:37;43.22;41.82;44.97;;
56099;Laerm;44276;49.534;6.378;2023-08-12T09:43:06;43.23;42.03;44.54;;
56099;Laerm;44276;49.534;6.378;2023-08-12T09:45:35;43.34;41.89;45.36;;
56099;Laerm;44276;49.534;6.378;2023-08-12T09:48:06;43.25;41.68;46.55;;
56099;Laerm;44276;49.534;6.378;2023-08-12T09:50:36;43.33;42.03;46.15;;
56099;Laerm;44276;49.534;6.378;2023-08-12T09:53:04;43.28;41.88;46.45;;
56099;Laerm;44276;49.534;6.378;2023-08-12T09:55:35;43.23;42.03;49.83;;
56099;Laerm;44276;49.534;6.378;2023-08-12T09:58:06;43.68;42.03;50.56;;
56099;Laerm;44276;49.534;6.378;2023-08-12T10:00:39;43.81;42.22;48.13;;
56099;Laerm;44276;49.534;6.378;2023-08-12T10:03:11;43.50;41.68;46.10;;
56099;Laerm;44276;49.534;6.378;2023-08-12T10:05:41;43.37;41.89;46.43;;
56099;Laerm;44276;49.534;6.378;2023-08-12T10:08:11;43.40;41.53;52.31;;
56099;Laerm;44276;49.534;6.378;2023-08-12T10:10:42;43.51;41.22;49.81;;
56099;Laerm;44276;49.534;6.378;2023-08-12T10:13:15;43.33;41.68;46.20;;
56099;Laerm;44276;49.534;6.378;2023-08-12T10:15:45;43.36;41.75;45.40;;
56099;Laerm;44276;49.534;6.378;2023-08-12T10:18:15;43.32;41.82;45.33;;
56099;Laerm;44276;49.534;6.378;2023-08-12T10:20:44;43.36;41.75;45.01;;
56099;Laerm;44276;49.534;6.378;2023-08-12T10:23:16;43.19;41.46;44.69;;
56099;Laerm;44276;49.534;6.378;2023-08-12T10:25:45;43.39;42.03;44.87;;
56099;Laerm;44276;49.534;6.378;2023-08-12T10:28:18;43.33;41.82;45.39;;
56099;Laerm;44276;49.534;6.378;2023-08-12T10:30:47;43.35;42.03;44.51;;
56099;Laerm;44276;49.534;6.378;2023-08-12T10:33:17;43.31;42.09;45.91;;
56099;Laerm;44276;49.534;6.378;2023-08-12T10:35:47;43.30;41.82;44.62;;
56099;Laerm;44276;49.534;6.378;2023-08-12T10:38:19;43.37;42.03;44.94;;
56099;Laerm;44276;49.534;6.378;2023-08-12T10:40:49;43.38;41.89;44.87;;
56099;Laerm;44276;49.534;6.378;2023-08-12T10:43:18;43.44;42.09;55.31;;
56099;Laerm;44276;49.534;6.378;2023-08-12T10:45:52;43.42;42.09;45.86;;
56099;Laerm;44276;49.534;6.378;2023-08-12T10:48:25;43.56;41.89;50.25;;
56099;Laerm;44276;49.534;6.378;2023-08-12T10:50:58;43.43;41.68;49.18;;
56099;Laerm;44276;49.534;6.378;2023-08-12T10:53:28;43.36;42.03;49.45;;
56099;Laerm;44276;49.534;6.378;2023-08-12T10:56:03;43.40;42.00;45.89;;
56099;Laerm;44276;49.534;6.378;2023-08-12T10:58:37;43.59;42.22;46.97;;
56099;Laerm;44276;49.534;6.378;2023-08-12T11:01:13;43.98;42.09;58.60;;
56099;Laerm;44276;49.534;6.378;2023-08-12T11:03:47;43.53;42.16;49.04;;
56099;Laerm;44276;49.534;6.378;2023-08-12T11:06:16;43.37;42.16;44.73;;
56099;Laerm;44276;49.534;6.378;2023-08-12T11:08:46;43.54;42.03;48.07;;
56099;Laerm;44276;49.534;6.378;2023-08-12T11:11:21;43.49;41.96;50.48;;
56099;Laerm;44276;49.534;6.378;2023-08-12T11:13:53;43.49;41.75;50.44;;
56099;Laerm;44276;49.534;6.378;2023-08-12T11:16:34;43.25;41.96;47.26;;
56099;Laerm;44276;49.534;6.378;2023-08-12T11:19:04;43.86;41.89;56.11;;
56099;Laerm;44276;49.534;6.378;2023-08-12T11:21:36;44.54;41.82;55.88;;
56099;Laerm;44276;49.534;6.378;2023-08-12T11:24:05;44.71;41.75;63.14;;
56099;Laerm;44276;49.534;6.378;2023-08-12T11:26:34;44.77;41.06;56.73;;
56099;Laerm;44276;49.534;6.378;2023-08-12T11:29:09;45.94;41.14;60.13;;
56099;Laerm;44276;49.534;6.378;2023-08-12T11:31:37;45.24;41.06;60.02;;
56099;Laerm;44276;49.534;6.378;2023-08-12T11:34:07;46.54;40.89;61.20;;
56099;Laerm;44276;49.534;6.378;2023-08-12T11:36:36;43.83;40.98;52.63;;
56099;Laerm;44276;49.534;6.378;2023-08-12T11:39:04;42.80;40.53;47.10;;
56099;Laerm;44276;49.534;6.378;2023-08-12T11:41:34;43.35;40.71;47.83;;
56099;Laerm;44276;49.534;6.378;2023-08-12T11:44:03;43.70;41.06;49.90;;
56099;Laerm;44276;49.534;6.378;2023-08-12T11:46:32;47.22;41.19;65.84;;
56099;Laerm;44276;49.534;6.378;2023-08-12T11:49:01;49.08;40.89;64.29;;
56099;Laerm;44276;49.534;6.378;2023-08-12T11:51:31;46.59;40.98;60.84;;
56099;Laerm;44276;49.534;6.378;2023-08-12T11:54:00;46.04;41.22;60.84;;
56099;Laerm;44276;49.534;6.378;2023-08-12T11:56:28;44.22;40.98;56.55;;
56099;Laerm;44276;49.534;6.378;2023-08-12T11:58:57;46.45;40.80;63.67;;
56099;Laerm;44276;49.534;6.378;2023-08-12T12:01:26;47.20;40.98;62.00;;
56099;Laerm;44276;49.534;6.378;2023-08-12T12:03:55;43.18;40.23;52.03;;
56099;Laerm;44276;49.534;6.378;2023-08-12T12:06:32;43.66;41.06;52.90;;
56099;Laerm;44276;49.534;6.378;2023-08-12T12:09:03;43.75;41.38;53.46;;
56099;Laerm;44276;49.534;6.378;2023-08-12T12:11:32;44.20;41.53;59.11;;
56099;Laerm;44276;49.534;6.378;2023-08-12T12:14:02;45.03;41.61;56.68;;
56099;Laerm;44276;49.534;6.378;2023-08-12T12:16:41;43.48;41.22;56.19;;
56099;Laerm;44276;49.534;6.378;2023-08-12T12:19:16;45.44;41.46;61.57;;
56099;Laerm;44276;49.534;6.378;2023-08-12T12:21:49;44.44;41.30;59.44;;
56099;Laerm;44276;49.534;6.378;2023-08-12T12:24:19;43.64;41.14;51.82;;
56099;Laerm;44276;49.534;6.378;2023-08-12T12:26:49;46.27;41.14;64.51;;
56099;Laerm;44276;49.534;6.378;2023-08-12T12:29:17;46.85;41.14;63.73;;
56099;Laerm;44276;49.534;6.378;2023-08-12T12:31:45;48.03;40.89;62.08;;
56099;Laerm;44276;49.534;6.378;2023-08-12T12:34:15;44.04;40.80;55.41;;
56099;Laerm;44276;49.534;6.378;2023-08-12T12:36:44;45.51;40.98;62.03;;
56099;Laerm;44276;49.534;6.378;2023-08-12T12:39:14;46.33;41.14;58.49;;
56099;Laerm;44276;49.534;6.378;2023-08-12T12:41:42;46.98;41.22;61.08;;
56099;Laerm;44276;49.534;6.378;2023-08-12T12:44:14;45.27;40.80;59.21;;
56099;Laerm;44276;49.534;6.378;2023-08-12T12:46:42;44.30;41.06;57.76;;
56099;Laerm;44276;49.534;6.378;2023-08-12T12:49:11;44.77;41.46;59.04;;
56099;Laerm;44276;49.534;6.378;2023-08-12T12:51:39;46.31;41.46;58.35;;
56099;Laerm;44276;49.534;6.378;2023-08-12T12:54:07;44.46;40.98;55.98;;
56099;Laerm;44276;49.534;6.378;2023-08-12T12:56:37;43.46;40.98;54.18;;
56099;Laerm;44276;49.534;6.378;2023-08-12T12:59:05;44.51;41.14;61.09;;
56099;Laerm;44276;49.534;6.378;2023-08-12T13:01:34;44.71;41.30;57.62;;
56099;Laerm;44276;49.534;6.378;2023-08-12T13:04:02;45.40;41.22;61.28;;
56099;Laerm;44276;49.534;6.378;2023-08-12T13:06:31;46.00;41.30;62.15;;
56099;Laerm;44276;49.534;6.378;2023-08-12T13:08:59;43.16;41.14;51.80;;
56099;Laerm;44276;49.534;6.378;2023-08-12T13:11:28;43.36;41.30;53.75;;
56099;Laerm;44276;49.534;6.378;2023-08-12T13:13:58;43.04;41.30;50.97;;
56099;Laerm;44276;49.534;6.378;2023-08-12T13:16:26;43.73;41.30;53.01;;
56099;Laerm;44276;49.534;6.378;2023-08-12T13:18:55;42.82;41.30;45.75;;
56099;Laerm;44276;49.534;6.378;2023-08-12T13:21:25;42.83;41.14;46.82;;
56099;Laerm;44276;49.534;6.378;2023-08-12T13:23:54;42.86;41.30;48.92;;
56099;Laerm;44276;49.534;6.378;2023-08-12T13:26:23;43.00;41.38;47.18;;
56099;Laerm;44276;49.534;6.378;2023-08-12T13:28:51;43.12;41.14;47.02;;
56099;Laerm;44276;49.534;6.378;2023-08-12T13:31:21;42.89;41.06;45.99;;
56099;Laerm;44276;49.534;6.378;2023-08-12T13:33:50;42.88;41.30;46.64;;
56099;Laerm;44276;49.534;6.378;2023-08-12T13:36:18;42.99;41.30;46.87;;
56099;Laerm;44276;49.534;6.378;2023-08-12T13:38:47;42.82;41.30;44.65;;
56099;Laerm;44276;49.534;6.378;2023-08-12T13:41:15;44.51;41.53;61.68;;
56099;Laerm;44276;49.534;6.378;2023-08-12T13:43:44;43.11;40.71;51.30;;
56099;Laerm;44276;49.534;6.378;2023-08-12T13:46:12;43.90;41.30;56.48;;
56099;Laerm;44276;49.534;6.378;2023-08-12T13:48:42;44.62;41.30;61.21;;
56099;Laerm;44276;49.534;6.378;2023-08-12T13:51:10;43.73;41.14;55.07;;
56099;Laerm;44276;49.534;6.378;2023-08-12T13:53:38;44.00;41.53;56.93;;
56099;Laerm;44276;49.534;6.378;2023-08-12T13:56:07;44.00;41.46;54.72;;